Terminal Aerodrome Forecast
Issued by NWS

Home | Current Version | Previous Version | Text Only | Print | Product List | Glossary On
Versions: 1 2 3 4 5 6 7 8 9 10 11 12 13 14 15 16 17 18 19 20 21 22 23 24 25 26 27 28 29 30 31 32 33 34 35 36 37 38
000
FTUS45 KCYS 222340
TAFLAR
TAF
KLAR 222340Z 2300/2324 33018G27KT P6SM VCSH SCT030 OVC050
      TEMPO 2300/2301 32025G35KT 1/2SM SHSN BKN015 OVC050
     FM230200 31017G25KT 4SM -SN BKN025 OVC035
     FM231300 32014KT P6SM VCSH SCT035 BKN050
     FM231600 33018G29KT P6SM BKN100=

USA.gov is the U.S. government's official web portal to all federal, state and local government web resources and services.